sensor_id;sensor_type;location;lat;lon;timestamp;temperature;humidity
67893;DHT22;54688;52.376;16.744;2023-10-09T00:02:39;2.9;84.2
67893;DHT22;54688;52.376;16.744;2023-10-09T00:05:42;2.9;84
67893;DHT22;54688;52.376;16.744;2023-10-09T00:08:44;2.9;83.9
67893;DHT22;54688;52.376;16.744;2023-10-09T00:11:46;2.9;83.8
67893;DHT22;54688;52.376;16.744;2023-10-09T00:14:48;3;84
67893;DHT22;54688;52.376;16.744;2023-10-09T00:17:51;3;84
67893;DHT22;54688;52.376;16.744;2023-10-09T00:20:54;3;84
67893;DHT22;54688;52.376;16.744;2023-10-09T00:23:56;3;84.1
67893;DHT22;54688;52.376;16.744;2023-10-09T00:26:59;3;84.1
67893;DHT22;54688;52.376;16.744;2023-10-09T00:30:01;3;84.1
67893;DHT22;54688;52.376;16.744;2023-10-09T00:33:04;3;84.2
67893;DHT22;54688;52.376;16.744;2023-10-09T00:36:06;3;84.1
67893;DHT22;54688;52.376;16.744;2023-10-09T00:39:08;3;84
67893;DHT22;54688;52.376;16.744;2023-10-09T00:42:10;3;84.2
67893;DHT22;54688;52.376;16.744;2023-10-09T00:45:12;3.1;84.3
67893;DHT22;54688;52.376;16.744;2023-10-09T00:48:15;3.1;84.4
67893;DHT22;54688;52.376;16.744;2023-10-09T00:51:17;3.1;84.5
67893;DHT22;54688;52.376;16.744;2023-10-09T00:54:20;3.1;84.1
67893;DHT22;54688;52.376;16.744;2023-10-09T00:57:23;3.1;84
67893;DHT22;54688;52.376;16.744;2023-10-09T01:00:25;3.1;84.2
67893;DHT22;54688;52.376;16.744;2023-10-09T01:03:28;3.2;84.6
67893;DHT22;54688;52.376;16.744;2023-10-09T01:06:32;3.2;84.7
67893;DHT22;54688;52.376;16.744;2023-10-09T01:09:34;3.2;84.8
67893;DHT22;54688;52.376;16.744;2023-10-09T01:12:36;3.2;85
67893;DHT22;54688;52.376;16.744;2023-10-09T01:15:38;3.3;85.1
67893;DHT22;54688;52.376;16.744;2023-10-09T01:18:41;3.4;85.1
67893;DHT22;54688;52.376;16.744;2023-10-09T01:21:43;3.3;85
67893;DHT22;54688;52.376;16.744;2023-10-09T01:24:46;3.4;85
67893;DHT22;54688;52.376;16.744;2023-10-09T01:27:49;3.4;84.7
67893;DHT22;54688;52.376;16.744;2023-10-09T01:30:50;3.4;84.6
67893;DHT22;54688;52.376;16.744;2023-10-09T01:33:53;3.5;84.6
67893;DHT22;54688;52.376;16.744;2023-10-09T01:36:55;3.5;85.6
67893;DHT22;54688;52.376;16.744;2023-10-09T01:39:58;3.5;84.8
67893;DHT22;54688;52.376;16.744;2023-10-09T01:43:00;3.5;84.7
67893;DHT22;54688;52.376;16.744;2023-10-09T01:46:03;3.5;84.7
67893;DHT22;54688;52.376;16.744;2023-10-09T01:49:05;3.6;84.8
67893;DHT22;54688;52.376;16.744;2023-10-09T01:52:07;3.6;84.5
67893;DHT22;54688;52.376;16.744;2023-10-09T01:55:09;3.6;84.5
67893;DHT22;54688;52.376;16.744;2023-10-09T01:58:12;3.6;84.4
67893;DHT22;54688;52.376;16.744;2023-10-09T02:01:15;3.6;84.4
67893;DHT22;54688;52.376;16.744;2023-10-09T02:04:17;3.6;83.4
67893;DHT22;54688;52.376;16.744;2023-10-09T02:07:19;3.6;84.5
67893;DHT22;54688;52.376;16.744;2023-10-09T02:10:22;3.6;84.6
67893;DHT22;54688;52.376;16.744;2023-10-09T02:13:25;3.6;84.5
67893;DHT22;54688;52.376;16.744;2023-10-09T02:16:27;3.6;84.5
67893;DHT22;54688;52.376;16.744;2023-10-09T02:19:30;3.6;84.3
67893;DHT22;54688;52.376;16.744;2023-10-09T02:22:32;3.6;84.3
67893;DHT22;54688;52.376;16.744;2023-10-09T02:25:34;3.6;84.3
67893;DHT22;54688;52.376;16.744;2023-10-09T02:28:36;3.6;84.2
67893;DHT22;54688;52.376;16.744;2023-10-09T02:31:39;3.6;84.2
67893;DHT22;54688;52.376;16.744;2023-10-09T02:34:41;3.6;84.3
67893;DHT22;54688;52.376;16.744;2023-10-09T02:37:43;3.6;84.2
67893;DHT22;54688;52.376;16.744;2023-10-09T02:40:45;3.7;84.2
67893;DHT22;54688;52.376;16.744;2023-10-09T02:43:48;3.7;84.5
67893;DHT22;54688;52.376;16.744;2023-10-09T02:46:50;3.8;84.9
67893;DHT22;54688;52.376;16.744;2023-10-09T02:49:53;3.8;84.7
67893;DHT22;54688;52.376;16.744;2023-10-09T02:52:55;3.9;84.4
67893;DHT22;54688;52.376;16.744;2023-10-09T02:55:56;3.9;84.6
67893;DHT22;54688;52.376;16.744;2023-10-09T02:58:58;4;84.6
67893;DHT22;54688;52.376;16.744;2023-10-09T03:02:01;3.9;84.3
67893;DHT22;54688;52.376;16.744;2023-10-09T03:05:03;4;84.3
67893;DHT22;54688;52.376;16.744;2023-10-09T03:08:06;4;84.4
67893;DHT22;54688;52.376;16.744;2023-10-09T03:11:07;4;84.9
67893;DHT22;54688;52.376;16.744;2023-10-09T03:14:10;4.1;84.6
67893;DHT22;54688;52.376;16.744;2023-10-09T03:17:12;4.1;84.6
67893;DHT22;54688;52.376;16.744;2023-10-09T03:20:14;4.1;84.6
67893;DHT22;54688;52.376;16.744;2023-10-09T03:23:17;4.2;84.3
67893;DHT22;54688;52.376;16.744;2023-10-09T03:26:19;4.1;83.6
67893;DHT22;54688;52.376;16.744;2023-10-09T03:29:21;4.2;84.7
67893;DHT22;54688;52.376;16.744;2023-10-09T03:32:23;4.3;84.6
67893;DHT22;54688;52.376;16.744;2023-10-09T03:35:25;4.3;84.4
67893;DHT22;54688;52.376;16.744;2023-10-09T03:38:28;4.4;84.5
67893;DHT22;54688;52.376;16.744;2023-10-09T03:41:30;4.4;84.6
67893;DHT22;54688;52.376;16.744;2023-10-09T03:44:32;4.5;84.6
67893;DHT22;54688;52.376;16.744;2023-10-09T03:47:34;4.6;84.7
67893;DHT22;54688;52.376;16.744;2023-10-09T03:50:36;4.6;84.5
67893;DHT22;54688;52.376;16.744;2023-10-09T03:53:39;4.7;84.3
67893;DHT22;54688;52.376;16.744;2023-10-09T03:56:41;4.7;84
67893;DHT22;54688;52.376;16.744;2023-10-09T03:59:43;4.7;83.9
67893;DHT22;54688;52.376;16.744;2023-10-09T04:02:45;4.8;83.9
67893;DHT22;54688;52.376;16.744;2023-10-09T04:05:47;4.8;83.8
67893;DHT22;54688;52.376;16.744;2023-10-09T04:08:49;4.9;83.6
67893;DHT22;54688;52.376;16.744;2023-10-09T04:11:52;4.9;83.7
67893;DHT22;54688;52.376;16.744;2023-10-09T04:14:56;5;83.5
67893;DHT22;54688;52.376;16.744;2023-10-09T04:17:58;5.1;83.3
67893;DHT22;54688;52.376;16.744;2023-10-09T04:21:00;5.1;83.2
67893;DHT22;54688;52.376;16.744;2023-10-09T04:24:04;5.2;83
67893;DHT22;54688;52.376;16.744;2023-10-09T04:27:06;5.2;82.7
67893;DHT22;54688;52.376;16.744;2023-10-09T04:30:08;5.3;82.5
67893;DHT22;54688;52.376;16.744;2023-10-09T04:33:12;5.4;82.4
67893;DHT22;54688;52.376;16.744;2023-10-09T04:36:15;5.5;82.2
67893;DHT22;54688;52.376;16.744;2023-10-09T04:39:17;5.6;82.1
67893;DHT22;54688;52.376;16.744;2023-10-09T04:45:19;5.7;82.1
67893;DHT22;54688;52.376;16.744;2023-10-09T04:48:20;5.7;81.7
67893;DHT22;54688;52.376;16.744;2023-10-09T04:51:23;5.7;81.8
67893;DHT22;54688;52.376;16.744;2023-10-09T04:54:25;5.8;81.8
67893;DHT22;54688;52.376;16.744;2023-10-09T04:57:27;5.9;81.8
67893;DHT22;54688;52.376;16.744;2023-10-09T05:00:29;5.9;81.6
67893;DHT22;54688;52.376;16.744;2023-10-09T05:03:31;6;81.5
67893;DHT22;54688;52.376;16.744;2023-10-09T05:06:33;6;81.3
67893;DHT22;54688;52.376;16.744;2023-10-09T05:09:35;6.1;81.3
67893;DHT22;54688;52.376;16.744;2023-10-09T05:12:37;6.2;81.2
67893;DHT22;54688;52.376;16.744;2023-10-09T05:15:39;6.2;81.3
67893;DHT22;54688;52.376;16.744;2023-10-09T05:18:41;6.2;81.5
67893;DHT22;54688;52.376;16.744;2023-10-09T05:21:43;6.2;81.6
67893;DHT22;54688;52.376;16.744;2023-10-09T05:24:46;6.2;81.6
67893;DHT22;54688;52.376;16.744;2023-10-09T05:27:48;6.2;81.6
67893;DHT22;54688;52.376;16.744;2023-10-09T05:30:50;6.3;81.7
67893;DHT22;54688;52.376;16.744;2023-10-09T05:33:52;6.3;81.9
67893;DHT22;54688;52.376;16.744;2023-10-09T05:36:54;6.3;81.9
67893;DHT22;54688;52.376;16.744;2023-10-09T05:39:55;6.3;82.1
67893;DHT22;54688;52.376;16.744;2023-10-09T05:45:56;6.3;82.3
67893;DHT22;54688;52.376;16.744;2023-10-09T05:51:58;6.3;82.6
67893;DHT22;54688;52.376;16.744;2023-10-09T05:55:01;6.3;82.6
67893;DHT22;54688;52.376;16.744;2023-10-09T05:58:03;6.3;82.7
67893;DHT22;54688;52.376;16.744;2023-10-09T06:01:05;6.3;82.9
67893;DHT22;54688;52.376;16.744;2023-10-09T06:04:07;6.3;82.9
67893;DHT22;54688;52.376;16.744;2023-10-09T06:07:10;6.4;83
67893;DHT22;54688;52.376;16.744;2023-10-09T06:10:12;6.3;83
67893;DHT22;54688;52.376;16.744;2023-10-09T06:13:14;6.3;83.2
67893;DHT22;54688;52.376;16.744;2023-10-09T06:16:16;6.3;83.4
67893;DHT22;54688;52.376;16.744;2023-10-09T06:28:31;6.4;83.7
67893;DHT22;54688;52.376;16.744;2023-10-09T06:31:34;6.4;83.9
67893;DHT22;54688;52.376;16.744;2023-10-09T06:34:36;6.5;84
67893;DHT22;54688;52.376;16.744;2023-10-09T06:37:39;6.5;84.1
67893;DHT22;54688;52.376;16.744;2023-10-09T06:40:41;6.5;84
67893;DHT22;54688;52.376;16.744;2023-10-09T06:49:46;6.6;84.2
67893;DHT22;54688;52.376;16.744;2023-10-09T06:52:48;6.6;84.2
67893;DHT22;54688;52.376;16.744;2023-10-09T06:55:52;6.7;84.2
67893;DHT22;54688;52.376;16.744;2023-10-09T06:58:54;6.7;84.1
67893;DHT22;54688;52.376;16.744;2023-10-09T07:01:57;6.9;84.1
67893;DHT22;54688;52.376;16.744;2023-10-09T07:05:00;6.9;83.9
67893;DHT22;54688;52.376;16.744;2023-10-09T07:08:03;7;84
67893;DHT22;54688;52.376;16.744;2023-10-09T07:11:05;7;84
67893;DHT22;54688;52.376;16.744;2023-10-09T07:14:08;7.1;84
67893;DHT22;54688;52.376;16.744;2023-10-09T07:17:11;7.1;83.9
67893;DHT22;54688;52.376;16.744;2023-10-09T07:20:13;7.2;83.2
67893;DHT22;54688;52.376;16.744;2023-10-09T07:23:16;7.3;84
67893;DHT22;54688;52.376;16.744;2023-10-09T07:26:18;7.4;84
67893;DHT22;54688;52.376;16.744;2023-10-09T07:29:21;7.4;84.1
67893;DHT22;54688;52.376;16.744;2023-10-09T07:32:23;7.5;83.9
67893;DHT22;54688;52.376;16.744;2023-10-09T07:35:25;7.6;83.9
67893;DHT22;54688;52.376;16.744;2023-10-09T07:38:27;7.6;83.8
67893;DHT22;54688;52.376;16.744;2023-10-09T07:41:30;7.7;83.6
67893;DHT22;54688;52.376;16.744;2023-10-09T07:47:32;7.8;83
67893;DHT22;54688;52.376;16.744;2023-10-09T07:50:35;7.9;82.5
67893;DHT22;54688;52.376;16.744;2023-10-09T07:53:38;8;82.3
67893;DHT22;54688;52.376;16.744;2023-10-09T07:56:42;8.1;82.4
67893;DHT22;54688;52.376;16.744;2023-10-09T07:59:44;8.2;82.4
67893;DHT22;54688;52.376;16.744;2023-10-09T08:02:47;8.3;83.3
67893;DHT22;54688;52.376;16.744;2023-10-09T08:05:50;8.4;82.4
67893;DHT22;54688;52.376;16.744;2023-10-09T08:08:52;8.5;82.1
67893;DHT22;54688;52.376;16.744;2023-10-09T08:11:55;8.6;81.5
67893;DHT22;54688;52.376;16.744;2023-10-09T08:14:57;8.7;81.1
67893;DHT22;54688;52.376;16.744;2023-10-09T08:18:00;8.8;80.2
67893;DHT22;54688;52.376;16.744;2023-10-09T08:21:02;8.8;79.6
67893;DHT22;54688;52.376;16.744;2023-10-09T08:24:05;8.9;79.6
67893;DHT22;54688;52.376;16.744;2023-10-09T08:27:08;9;80
67893;DHT22;54688;52.376;16.744;2023-10-09T08:30:11;9;79.3
67893;DHT22;54688;52.376;16.744;2023-10-09T08:33:13;9.1;78.4
67893;DHT22;54688;52.376;16.744;2023-10-09T08:36:16;9.1;78.7
67893;DHT22;54688;52.376;16.744;2023-10-09T08:39:18;9.2;79.4
67893;DHT22;54688;52.376;16.744;2023-10-09T08:42:21;9.3;79.6
67893;DHT22;54688;52.376;16.744;2023-10-09T08:45:24;9.3;79.4
67893;DHT22;54688;52.376;16.744;2023-10-09T08:48:26;9.3;78.7
67893;DHT22;54688;52.376;16.744;2023-10-09T08:51:29;9.3;78.4
67893;DHT22;54688;52.376;16.744;2023-10-09T08:54:32;9.3;78.7
67893;DHT22;54688;52.376;16.744;2023-10-09T08:57:33;9.3;79.7
67893;DHT22;54688;52.376;16.744;2023-10-09T09:00:35;9.3;78.9
67893;DHT22;54688;52.376;16.744;2023-10-09T09:03:38;9.2;79.3
67893;DHT22;54688;52.376;16.744;2023-10-09T09:06:41;9.3;79.1
67893;DHT22;54688;52.376;16.744;2023-10-09T09:09:45;9.4;77.2
67893;DHT22;54688;52.376;16.744;2023-10-09T09:12:56;9.4;76.8
67893;DHT22;54688;52.376;16.744;2023-10-09T09:15:58;9.4;77.5
67893;DHT22;54688;52.376;16.744;2023-10-09T09:19:00;9.5;76.8
67893;DHT22;54688;52.376;16.744;2023-10-09T09:22:04;9.5;76.9
67893;DHT22;54688;52.376;16.744;2023-10-09T09:25:07;9.6;77.7
67893;DHT22;54688;52.376;16.744;2023-10-09T09:28:10;9.7;77.9
67893;DHT22;54688;52.376;16.744;2023-10-09T09:31:12;9.9;77.9
67893;DHT22;54688;52.376;16.744;2023-10-09T09:34:14;9.9;77.1
67893;DHT22;54688;52.376;16.744;2023-10-09T09:37:18;10;76.4
67893;DHT22;54688;52.376;16.744;2023-10-09T09:40:21;10.1;76.2
67893;DHT22;54688;52.376;16.744;2023-10-09T09:43:24;10.2;75.6
67893;DHT22;54688;52.376;16.744;2023-10-09T09:46:29;10.2;76.3
67893;DHT22;54688;52.376;16.744;2023-10-09T09:49:33;10.3;75.9
67893;DHT22;54688;52.376;16.744;2023-10-09T09:52:39;10.3;75.2
67893;DHT22;54688;52.376;16.744;2023-10-09T09:55:42;10.4;74.9
67893;DHT22;54688;52.376;16.744;2023-10-09T09:58:49;10.5;73.5
67893;DHT22;54688;52.376;16.744;2023-10-09T10:01:52;10.6;73.9
67893;DHT22;54688;52.376;16.744;2023-10-09T10:04:56;10.8;73.5
67893;DHT22;54688;52.376;16.744;2023-10-09T10:08:01;10.9;73
67893;DHT22;54688;52.376;16.744;2023-10-09T10:11:05;11;72.6
67893;DHT22;54688;52.376;16.744;2023-10-09T10:14:08;11.2;70.2
67893;DHT22;54688;52.376;16.744;2023-10-09T10:17:10;11.3;70.2
67893;DHT22;54688;52.376;16.744;2023-10-09T10:20:12;11.3;70.5
67893;DHT22;54688;52.376;16.744;2023-10-09T10:23:15;11.4;70.8
67893;DHT22;54688;52.376;16.744;2023-10-09T10:26:20;11.5;70.8
67893;DHT22;54688;52.376;16.744;2023-10-09T10:29:23;11.6;71.3
67893;DHT22;54688;52.376;16.744;2023-10-09T10:32:25;11.7;70.6
67893;DHT22;54688;52.376;16.744;2023-10-09T10:35:55;11.8;70
67893;DHT22;54688;52.376;16.744;2023-10-09T10:38:59;11.9;69.5
67893;DHT22;54688;52.376;16.744;2023-10-09T10:42:02;12;68.6
67893;DHT22;54688;52.376;16.744;2023-10-09T10:45:04;12.1;67.3
67893;DHT22;54688;52.376;16.744;2023-10-09T10:48:07;12.1;68.2
67893;DHT22;54688;52.376;16.744;2023-10-09T10:51:10;12.2;68
67893;DHT22;54688;52.376;16.744;2023-10-09T10:54:19;12.3;66.9
67893;DHT22;54688;52.376;16.744;2023-10-09T10:57:22;12.3;67.4
67893;DHT22;54688;52.376;16.744;2023-10-09T11:00:25;12.4;65.4
67893;DHT22;54688;52.376;16.744;2023-10-09T11:03:28;12.3;66
67893;DHT22;54688;52.376;16.744;2023-10-09T11:06:31;12.3;64.8
67893;DHT22;54688;52.376;16.744;2023-10-09T11:09:42;12.2;66.7
67893;DHT22;54688;52.376;16.744;2023-10-09T11:12:45;12.2;66.2
67893;DHT22;54688;52.376;16.744;2023-10-09T11:15:49;12.2;68.2
67893;DHT22;54688;52.376;16.744;2023-10-09T11:18:52;12.2;67.6
67893;DHT22;54688;52.376;16.744;2023-10-09T11:21:54;12.2;67.6
67893;DHT22;54688;52.376;16.744;2023-10-09T11:24:58;12.2;67.5
67893;DHT22;54688;52.376;16.744;2023-10-09T11:28:01;12.2;68
67893;DHT22;54688;52.376;16.744;2023-10-09T11:31:06;12.3;67.1
67893;DHT22;54688;52.376;16.744;2023-10-09T11:34:17;12.3;64.8
67893;DHT22;54688;52.376;16.744;2023-10-09T11:37:21;12.2;65.9
67893;DHT22;54688;52.376;16.744;2023-10-09T11:40:27;12.2;64.9
67893;DHT22;54688;52.376;16.744;2023-10-09T11:43:37;12.2;64.6
67893;DHT22;54688;52.376;16.744;2023-10-09T11:46:56;12.1;64.9
67893;DHT22;54688;52.376;16.744;2023-10-09T11:49:59;12.1;64.8
67893;DHT22;54688;52.376;16.744;2023-10-09T11:53:01;12;63.6
67893;DHT22;54688;52.376;16.744;2023-10-09T11:56:03;12;63.7
67893;DHT22;54688;52.376;16.744;2023-10-09T11:59:06;11.9;64.9
67893;DHT22;54688;52.376;16.744;2023-10-09T12:02:08;11.9;64.9
67893;DHT22;54688;52.376;16.744;2023-10-09T12:05:11;11.9;64.7
67893;DHT22;54688;52.376;16.744;2023-10-09T12:08:13;11.9;64.3
67893;DHT22;54688;52.376;16.744;2023-10-09T12:11:15;12;65.3
67893;DHT22;54688;52.376;16.744;2023-10-09T12:14:18;11.9;65.8
67893;DHT22;54688;52.376;16.744;2023-10-09T12:17:20;12;65.9
67893;DHT22;54688;52.376;16.744;2023-10-09T12:20:23;12;65.1
67893;DHT22;54688;52.376;16.744;2023-10-09T12:23:26;12;65.7
67893;DHT22;54688;52.376;16.744;2023-10-09T12:26:28;12;65.5
67893;DHT22;54688;52.376;16.744;2023-10-09T12:29:30;11.9;64
67893;DHT22;54688;52.376;16.744;2023-10-09T12:32:32;11.9;64.6
67893;DHT22;54688;52.376;16.744;2023-10-09T12:35:36;11.9;65.2
67893;DHT22;54688;52.376;16.744;2023-10-09T12:38:39;12;65.6
67893;DHT22;54688;52.376;16.744;2023-10-09T12:41:42;12;65
67893;DHT22;54688;52.376;16.744;2023-10-09T12:44:45;12;65.5
67893;DHT22;54688;52.376;16.744;2023-10-09T12:47:47;11.9;64.5
67893;DHT22;54688;52.376;16.744;2023-10-09T12:50:50;11.9;65.1
67893;DHT22;54688;52.376;16.744;2023-10-09T12:53:52;11.9;64.3
67893;DHT22;54688;52.376;16.744;2023-10-09T12:56:55;11.9;65.9
67893;DHT22;54688;52.376;16.744;2023-10-09T12:59:57;12;65.6
67893;DHT22;54688;52.376;16.744;2023-10-09T13:03:00;12;63.8
67893;DHT22;54688;52.376;16.744;2023-10-09T13:06:03;12;64.5
67893;DHT22;54688;52.376;16.744;2023-10-09T13:09:06;12;63.8
67893;DHT22;54688;52.376;16.744;2023-10-09T13:12:09;12.1;65
67893;DHT22;54688;52.376;16.744;2023-10-09T13:15:11;12.1;65
67893;DHT22;54688;52.376;16.744;2023-10-09T13:18:14;12.1;63.5
67893;DHT22;54688;52.376;16.744;2023-10-09T13:21:17;12;64.1
67893;DHT22;54688;52.376;16.744;2023-10-09T13:24:21;12;63.2
67893;DHT22;54688;52.376;16.744;2023-10-09T13:27:23;12;64.6
67893;DHT22;54688;52.376;16.744;2023-10-09T13:30:26;12;64.6
67893;DHT22;54688;52.376;16.744;2023-10-09T13:33:28;12;65.3
67893;DHT22;54688;52.376;16.744;2023-10-09T13:36:31;12;64.7
67893;DHT22;54688;52.376;16.744;2023-10-09T13:39:34;12;65.3
67893;DHT22;54688;52.376;16.744;2023-10-09T13:42:37;12;64.8
67893;DHT22;54688;52.376;16.744;2023-10-09T13:45:39;12;64.3
67893;DHT22;54688;52.376;16.744;2023-10-09T13:48:42;12;64.5
67893;DHT22;54688;52.376;16.744;2023-10-09T13:51:45;11.9;65.3
67893;DHT22;54688;52.376;16.744;2023-10-09T13:54:48;12;65
67893;DHT22;54688;52.376;16.744;2023-10-09T13:57:51;11.9;65.4
67893;DHT22;54688;52.376;16.744;2023-10-09T14:00:54;11.9;65.6
67893;DHT22;54688;52.376;16.744;2023-10-09T14:03:56;11.8;66.5
67893;DHT22;54688;52.376;16.744;2023-10-09T14:07:00;11.7;65.4
67893;DHT22;54688;52.376;16.744;2023-10-09T14:10:02;11.7;64.9
67893;DHT22;54688;52.376;16.744;2023-10-09T14:13:06;11.6;64.6
67893;DHT22;54688;52.376;16.744;2023-10-09T14:16:08;11.5;64.5
67893;DHT22;54688;52.376;16.744;2023-10-09T14:19:11;11.4;64.6
67893;DHT22;54688;52.376;16.744;2023-10-09T14:22:13;11.3;65.2
67893;DHT22;54688;52.376;16.744;2023-10-09T14:25:16;11.2;65.6
67893;DHT22;54688;52.376;16.744;2023-10-09T14:28:19;11.2;66.6
67893;DHT22;54688;52.376;16.744;2023-10-09T14:31:21;11.1;66.2
67893;DHT22;54688;52.376;16.744;2023-10-09T14:34:24;11.1;65.7
67893;DHT22;54688;52.376;16.744;2023-10-09T14:37:27;11;66.3
67893;DHT22;54688;52.376;16.744;2023-10-09T14:40:29;11;67.4
67893;DHT22;54688;52.376;16.744;2023-10-09T14:43:32;11;67.4
67893;DHT22;54688;52.376;16.744;2023-10-09T14:46:34;10.9;67.7
67893;DHT22;54688;52.376;16.744;2023-10-09T14:49:37;10.9;68.2
67893;DHT22;54688;52.376;16.744;2023-10-09T14:52:41;10.9;68.8
67893;DHT22;54688;52.376;16.744;2023-10-09T14:55:43;10.9;68.9
67893;DHT22;54688;52.376;16.744;2023-10-09T14:58:46;10.9;69
67893;DHT22;54688;52.376;16.744;2023-10-09T15:01:48;10.8;68.1
67893;DHT22;54688;52.376;16.744;2023-10-09T15:04:51;10.8;68.5
67893;DHT22;54688;52.376;16.744;2023-10-09T15:07:54;10.7;68.3
67893;DHT22;54688;52.376;16.744;2023-10-09T15:10:56;10.7;68.6
67893;DHT22;54688;52.376;16.744;2023-10-09T15:13:59;10.7;69.1
67893;DHT22;54688;52.376;16.744;2023-10-09T15:17:01;10.6;69.7
67893;DHT22;54688;52.376;16.744;2023-10-09T15:20:04;10.6;69
67893;DHT22;54688;52.376;16.744;2023-10-09T15:23:07;10.6;69.4
67893;DHT22;54688;52.376;16.744;2023-10-09T15:26:10;10.6;69.4
67893;DHT22;54688;52.376;16.744;2023-10-09T15:29:12;10.6;69.9
67893;DHT22;54688;52.376;16.744;2023-10-09T15:32:15;10.6;69.9
67893;DHT22;54688;52.376;16.744;2023-10-09T15:35:18;10.6;69.9
67893;DHT22;54688;52.376;16.744;2023-10-09T15:38:20;10.6;70.5
67893;DHT22;54688;52.376;16.744;2023-10-09T15:41:23;10.5;70
67893;DHT22;54688;52.376;16.744;2023-10-09T15:44:25;10.5;69.7
67893;DHT22;54688;52.376;16.744;2023-10-09T15:47:27;10.5;70
67893;DHT22;54688;52.376;16.744;2023-10-09T15:50:30;10.4;70.4
67893;DHT22;54688;52.376;16.744;2023-10-09T15:53:32;10.4;71
67893;DHT22;54688;52.376;16.744;2023-10-09T15:56:35;10.4;71.1
67893;DHT22;54688;52.376;16.744;2023-10-09T15:59:37;10.4;70.9
67893;DHT22;54688;52.376;16.744;2023-10-09T16:02:40;10.4;70.6
67893;DHT22;54688;52.376;16.744;2023-10-09T16:05:42;10.3;70.5
67893;DHT22;54688;52.376;16.744;2023-10-09T16:08:45;10.3;71.4
67893;DHT22;54688;52.376;16.744;2023-10-09T16:11:49;10.3;71.4
67893;DHT22;54688;52.376;16.744;2023-10-09T16:14:52;10.3;71.6
67893;DHT22;54688;52.376;16.744;2023-10-09T16:17:54;10.2;71.5
67893;DHT22;54688;52.376;16.744;2023-10-09T16:20:58;10.2;72.5
67893;DHT22;54688;52.376;16.744;2023-10-09T16:24:00;10.2;71.9
67893;DHT22;54688;52.376;16.744;2023-10-09T16:27:03;10.2;72
67893;DHT22;54688;52.376;16.744;2023-10-09T16:30:06;10.2;71.7
67893;DHT22;54688;52.376;16.744;2023-10-09T16:33:09;10.2;72.5
67893;DHT22;54688;52.376;16.744;2023-10-09T16:36:12;10.2;71.7
67893;DHT22;54688;52.376;16.744;2023-10-09T16:39:15;10.3;71.5
67893;DHT22;54688;52.376;16.744;2023-10-09T16:42:17;10.2;71.5
67893;DHT22;54688;52.376;16.744;2023-10-09T16:45:20;10.2;71.9
67893;DHT22;54688;52.376;16.744;2023-10-09T16:48:23;10.1;71.8
67893;DHT22;54688;52.376;16.744;2023-10-09T16:51:26;10.1;72.2
67893;DHT22;54688;52.376;16.744;2023-10-09T16:54:29;10;72.9
67893;DHT22;54688;52.376;16.744;2023-10-09T16:57:32;10;72.8
67893;DHT22;54688;52.376;16.744;2023-10-09T17:00:34;10;73.9
67893;DHT22;54688;52.376;16.744;2023-10-09T17:03:37;10;73.6
67893;DHT22;54688;52.376;16.744;2023-10-09T17:06:39;9.9;73.8
67893;DHT22;54688;52.376;16.744;2023-10-09T17:09:41;9.9;74.3
67893;DHT22;54688;52.376;16.744;2023-10-09T17:12:43;9.9;74.2
67893;DHT22;54688;52.376;16.744;2023-10-09T17:15:47;9.8;73.5
67893;DHT22;54688;52.376;16.744;2023-10-09T17:18:50;9.8;73
67893;DHT22;54688;52.376;16.744;2023-10-09T17:21:54;9.8;73.8
67893;DHT22;54688;52.376;16.744;2023-10-09T17:24:57;9.8;74.1
67893;DHT22;54688;52.376;16.744;2023-10-09T17:27:59;9.8;74.2
67893;DHT22;54688;52.376;16.744;2023-10-09T17:31:01;9.8;74.2
67893;DHT22;54688;52.376;16.744;2023-10-09T17:34:04;9.8;74.6
67893;DHT22;54688;52.376;16.744;2023-10-09T17:37:07;9.8;74.5
67893;DHT22;54688;52.376;16.744;2023-10-09T17:40:10;9.8;74.7
67893;DHT22;54688;52.376;16.744;2023-10-09T17:43:13;9.8;74.5
67893;DHT22;54688;52.376;16.744;2023-10-09T17:46:16;9.9;74.5
67893;DHT22;54688;52.376;16.744;2023-10-09T17:49:18;9.8;75
67893;DHT22;54688;52.376;16.744;2023-10-09T17:52:21;9.8;74.2
67893;DHT22;54688;52.376;16.744;2023-10-09T17:55:23;9.8;75
67893;DHT22;54688;52.376;16.744;2023-10-09T17:58:26;9.7;75.1
67893;DHT22;54688;52.376;16.744;2023-10-09T18:01:28;9.7;75.3
67893;DHT22;54688;52.376;16.744;2023-10-09T18:04:31;9.6;75.6
67893;DHT22;54688;52.376;16.744;2023-10-09T18:07:33;9.6;75.3
67893;DHT22;54688;52.376;16.744;2023-10-09T18:10:36;9.6;75.6
67893;DHT22;54688;52.376;16.744;2023-10-09T18:13:39;9.5;75.7
67893;DHT22;54688;52.376;16.744;2023-10-09T18:16:42;9.5;75.8
67893;DHT22;54688;52.376;16.744;2023-10-09T18:19:46;9.4;75.7
67893;DHT22;54688;52.376;16.744;2023-10-09T18:22:49;9.3;75.8
67893;DHT22;54688;52.376;16.744;2023-10-09T18:25:55;9.3;76.9
67893;DHT22;54688;52.376;16.744;2023-10-09T18:28:58;9.2;76.8
67893;DHT22;54688;52.376;16.744;2023-10-09T18:32:00;9.2;77
67893;DHT22;54688;52.376;16.744;2023-10-09T18:35:03;9.2;77
67893;DHT22;54688;52.376;16.744;2023-10-09T18:38:06;9.2;76.8
67893;DHT22;54688;52.376;16.744;2023-10-09T18:41:09;9.2;76.7
67893;DHT22;54688;52.376;16.744;2023-10-09T18:44:11;9.1;76.6
67893;DHT22;54688;52.376;16.744;2023-10-09T18:47:14;9.1;77
67893;DHT22;54688;52.376;16.744;2023-10-09T18:50:16;9.1;76.3
67893;DHT22;54688;52.376;16.744;2023-10-09T18:53:19;9;77
67893;DHT22;54688;52.376;16.744;2023-10-09T18:56:22;9;76.3
67893;DHT22;54688;52.376;16.744;2023-10-09T18:59:24;8.9;77
67893;DHT22;54688;52.376;16.744;2023-10-09T19:02:27;8.9;77.3
67893;DHT22;54688;52.376;16.744;2023-10-09T19:05:30;8.9;77.7
67893;DHT22;54688;52.376;16.744;2023-10-09T19:08:32;8.9;78
67893;DHT22;54688;52.376;16.744;2023-10-09T19:11:35;8.9;78.2
67893;DHT22;54688;52.376;16.744;2023-10-09T19:17:37;8.9;78.3
67893;DHT22;54688;52.376;16.744;2023-10-09T19:20:40;8.9;78.5
67893;DHT22;54688;52.376;16.744;2023-10-09T19:23:43;8.8;78.6
67893;DHT22;54688;52.376;16.744;2023-10-09T19:26:46;8.9;78.7
67893;DHT22;54688;52.376;16.744;2023-10-09T19:29:49;8.9;78.9
67893;DHT22;54688;52.376;16.744;2023-10-09T19:32:51;8.8;78.8
67893;DHT22;54688;52.376;16.744;2023-10-09T19:35:56;8.8;78.7
67893;DHT22;54688;52.376;16.744;2023-10-09T19:39:03;8.8;79.1
67893;DHT22;54688;52.376;16.744;2023-10-09T19:42:06;8.8;78.7
67893;DHT22;54688;52.376;16.744;2023-10-09T19:45:10;8.7;79
67893;DHT22;54688;52.376;16.744;2023-10-09T19:48:12;8.7;79.1
67893;DHT22;54688;52.376;16.744;2023-10-09T19:51:15;8.7;79.2
67893;DHT22;54688;52.376;16.744;2023-10-09T19:54:19;8.6;79.4
67893;DHT22;54688;52.376;16.744;2023-10-09T19:57:22;8.6;79.3
67893;DHT22;54688;52.376;16.744;2023-10-09T20:00:25;8.5;79.9
67893;DHT22;54688;52.376;16.744;2023-10-09T20:03:27;8.5;78.9
67893;DHT22;54688;52.376;16.744;2023-10-09T20:06:29;8.4;79
67893;DHT22;54688;52.376;16.744;2023-10-09T20:09:31;8.3;78.9
67893;DHT22;54688;52.376;16.744;2023-10-09T20:12:34;8.3;78.9
67893;DHT22;54688;52.376;16.744;2023-10-09T20:15:36;8.2;79
67893;DHT22;54688;52.376;16.744;2023-10-09T20:18:40;8.1;79.6
67893;DHT22;54688;52.376;16.744;2023-10-09T20:21:43;8.1;79.6
67893;DHT22;54688;52.376;16.744;2023-10-09T20:24:45;8;79.7
67893;DHT22;54688;52.376;16.744;2023-10-09T20:27:47;7.9;79.9